Time;durP1;ratioP1;P1;durP2;ratioP2;P2;SDS_P1;SDS_P2;PMS_P1;PMS_P2;Temp;Humidity;BMP_temperature;BMP_pressure;BME280_temperature;BME280_humidity;BME280_pressure;Samples;Min_cycle;Max_cycle;Signal;HPM_P1;HPM_P2
2023/03/25 00:00:13;;;;;;;2.37;1.73;;;10.60;99.90;;;;;;5114295;28;20476;-61
2023/03/25 00:02:43;;;;;;;2.87;1.70;;;10.50;99.90;;;;;;5109660;28;20492;-56
2023/03/25 00:05:11;;;;;;;6.27;2.07;;;10.50;99.90;;;;;;5115591;28;20414;-59
2023/03/25 00:07:38;;;;;;;2.63;1.60;;;10.50;99.90;;;;;;5115601;28;20458;-59
2023/03/25 00:10:06;;;;;;;2.33;1.70;;;10.50;99.90;;;;;;5112866;28;20469;-57
2023/03/25 00:12:33;;;;;;;2.40;1.47;;;10.50;99.90;;;;;;5111377;28;20461;-59
2023/03/25 00:15:04;;;;;;;4.23;1.43;;;10.50;99.90;;;;;;5112239;28;20491;-59
2023/03/25 00:17:31;;;;;;;3.13;1.80;;;10.40;99.90;;;;;;5108396;28;20453;-60
2023/03/25 00:20:01;;;;;;;2.37;1.57;;;10.40;99.90;;;;;;5110767;28;20466;-63
2023/03/25 00:22:28;;;;;;;3.53;1.80;;;10.30;99.90;;;;;;5115670;28;20524;-59
2023/03/25 00:24:57;;;;;;;3.10;2.20;;;10.30;99.90;;;;;;5110506;28;20453;-58
2023/03/25 00:27:24;;;;;;;1.90;1.43;;;10.40;99.90;;;;;;5100366;28;20600;-59
2023/03/25 00:29:51;;;;;;;3.30;1.70;;;10.30;99.90;;;;;;5109529;28;20448;-56
2023/03/25 00:32:19;;;;;;;4.00;1.90;;;10.30;99.90;;;;;;5113783;28;20457;-62
2023/03/25 00:34:47;;;;;;;5.23;1.77;;;10.20;99.90;;;;;;5104957;28;20476;-61
2023/03/25 00:37:17;;;;;;;3.23;2.63;;;10.30;99.90;;;;;;5114945;28;20525;-57
2023/03/25 00:39:44;;;;;;;2.50;1.70;;;10.30;99.90;;;;;;5113221;28;20462;-55
2023/03/25 00:42:12;;;;;;;2.37;1.93;;;10.30;99.90;;;;;;5105793;28;20477;-60
2023/03/25 00:44:40;;;;;;;2.17;1.60;;;10.20;99.90;;;;;;5114451;28;20501;-60
2023/03/25 00:47:07;;;;;;;3.20;1.87;;;10.30;99.90;;;;;;5110934;28;20499;-61
2023/03/25 00:49:33;;;;;;;2.57;1.50;;;10.30;99.90;;;;;;5109183;28;20465;-60
2023/03/25 00:52:00;;;;;;;2.03;1.57;;;10.30;99.90;;;;;;5112468;28;20461;-56
2023/03/25 00:54:28;;;;;;;2.73;1.90;;;10.30;99.90;;;;;;5113126;28;20450;-52
2023/03/25 00:56:57;;;;;;;2.30;1.80;;;10.30;99.90;;;;;;5111064;28;20481;-59
2023/03/25 00:59:24;;;;;;;2.47;1.33;;;10.30;99.90;;;;;;5109020;28;20477;-61
2023/03/25 01:01:52;;;;;;;1.73;1.53;;;10.30;99.90;;;;;;5112744;28;20475;-58
2023/03/25 01:04:19;;;;;;;1.80;1.27;;;10.30;99.90;;;;;;5111950;28;20477;-57
2023/03/25 01:06:50;;;;;;;2.90;1.40;;;10.30;99.90;;;;;;5110399;28;20533;-61
2023/03/25 01:09:19;;;;;;;1.23;1.00;;;10.30;99.90;;;;;;5112202;28;20442;-61
2023/03/25 01:11:48;;;;;;;3.50;1.90;;;10.30;99.90;;;;;;5114115;28;20437;-59
2023/03/25 01:14:17;;;;;;;3.63;1.47;;;10.20;99.90;;;;;;5113482;28;20477;-62
2023/03/25 01:16:45;;;;;;;4.00;2.10;;;10.20;99.90;;;;;;5113216;28;20456;-56
2023/03/25 01:19:13;;;;;;;2.53;1.50;;;10.20;99.90;;;;;;5110729;28;20473;-55
2023/03/25 01:21:40;;;;;;;3.73;1.77;;;10.20;99.90;;;;;;5113184;28;20457;-59
2023/03/25 01:24:10;;;;;;;2.10;1.60;;;10.20;99.90;;;;;;5114307;28;20481;-60
2023/03/25 01:26:40;;;;;;;6.33;1.30;;;10.10;99.90;;;;;;5113648;28;20429;-60
2023/03/25 01:29:08;;;;;;;1.57;1.30;;;10.00;99.90;;;;;;5107366;28;21099;-54
2023/03/25 01:31:35;;;;;;;2.00;1.50;;;10.00;99.90;;;;;;5108825;28;20497;-59
2023/03/25 01:34:02;;;;;;;2.87;1.70;;;9.90;99.90;;;;;;5112526;28;20457;-59
2023/03/25 01:36:29;;;;;;;2.40;1.67;;;10.00;99.90;;;;;;5112030;28;20433;-61
2023/03/25 01:38:57;;;;;;;1.53;1.20;;;10.00;99.90;;;;;;5108047;28;20921;-61
2023/03/25 01:41:25;;;;;;;4.23;2.00;;;9.90;99.90;;;;;;5112470;28;20473;-61
2023/03/25 01:44:06;;;;;;;4.43;1.77;;;10.00;99.90;;;;;;5107828;28;20477;-58
2023/03/25 01:46:37;;;;;;;1.77;1.13;;;10.00;99.90;;;;;;5112544;28;20441;-60
2023/03/25 01:49:08;;;;;;;3.97;1.90;;;10.10;99.90;;;;;;5109426;28;20453;-53
2023/03/25 01:51:39;;;;;;;1.57;1.13;;;10.00;99.90;;;;;;5106006;28;20458;-57
2023/03/25 01:54:06;;;;;;;9.90;1.70;;;10.00;99.90;;;;;;5111376;28;20441;-59
2023/03/25 01:56:38;;;;;;;1.83;1.40;;;10.00;99.90;;;;;;5110849;28;20473;-61
2023/03/25 01:59:08;;;;;;;4.40;1.50;;;9.90;99.90;;;;;;5112777;28;20451;-54
2023/03/25 02:01:37;;;;;;;1.60;1.13;;;9.90;99.90;;;;;;5110578;28;20483;-61
2023/03/25 02:04:08;;;;;;;3.30;1.63;;;10.00;99.90;;;;;;5109605;28;20527;-58
2023/03/25 02:06:41;;;;;;;3.90;1.63;;;10.00;99.90;;;;;;5123604;28;20486;-60
2023/03/25 02:09:10;;;;;;;1.47;1.10;;;10.00;99.90;;;;;;5107278;28;20476;-50
2023/03/25 02:11:38;;;;;;;2.00;1.30;;;10.00;99.90;;;;;;5103961;28;20517;-59
2023/03/25 02:14:07;;;;;;;1.50;0.90;;;10.00;99.90;;;;;;5109998;28;20484;-59
2023/03/25 02:16:45;;;;;;;5.53;1.70;;;10.00;99.90;;;;;;5114908;28;20479;-54
2023/03/25 02:20:04;;;;;;;3.03;1.57;;;10.10;99.90;;;;;;5104819;28;20469;-54
2023/03/25 02:23:06;;;;;;;4.10;1.90;;;10.10;99.90;;;;;;5086837;28;20486;-56
2023/03/25 02:25:53;;;;;;;1.57;1.20;;;10.20;99.90;;;;;;5108436;28;20451;-54
2023/03/25 02:28:28;;;;;;;2.20;1.63;;;10.20;99.90;;;;;;5108676;28;20456;-59
2023/03/25 02:31:21;;;;;;;2.53;2.03;;;10.20;99.90;;;;;;5112199;28;20472;-59
2023/03/25 02:37:45;;;;;;;2.83;1.40;;;10.30;99.90;;;;;;5084771;27;20622;-62
2023/03/25 02:40:19;;;;;;;5.70;1.77;;;9.50;99.90;;;;;;5088177;28;20459;-62
2023/03/25 02:42:51;;;;;;;2.80;2.03;;;10.30;99.90;;;;;;5088595;28;20481;-61
2023/03/25 02:45:25;;;;;;;1.70;1.57;;;10.30;99.90;;;;;;5083453;28;20504;-63
2023/03/25 02:47:59;;;;;;;2.70;1.80;;;10.40;99.90;;;;;;5074871;28;20478;-61
2023/03/25 02:50:30;;;;;;;5.03;2.10;;;10.40;99.90;;;;;;5084453;28;20523;-64
2023/03/25 02:53:02;;;;;;;4.47;1.63;;;10.40;99.90;;;;;;5090489;28;20477;-62
2023/03/25 02:55:33;;;;;;;3.50;2.37;;;10.10;99.90;;;;;;5086557;28;20497;-61
2023/03/25 02:58:04;;;;;;;3.37;1.37;;;9.60;99.90;;;;;;5082107;28;20462;-59
2023/03/25 03:00:37;;;;;;;4.50;2.07;;;10.40;99.90;;;;;;5083830;28;20579;-61
2023/03/25 03:03:05;;;;;;;3.10;1.70;;;9.90;99.90;;;;;;5082031;28;20462;-60
2023/03/25 03:05:35;;;;;;;5.70;1.67;;;10.40;99.90;;;;;;5081387;28;20479;-61
2023/03/25 03:08:28;;;;;;;4.63;2.20;;;10.40;99.90;;;;;;5090811;28;20450;-62
2023/03/25 03:11:08;;;;;;;4.53;2.07;;;10.40;99.90;;;;;;5086669;28;20469;-61
2023/03/25 03:13:51;;;;;;;3.30;2.60;;;10.40;99.90;;;;;;5085874;28;20490;-60
2023/03/25 03:16:25;;;;;;;3.47;2.40;;;10.40;99.90;;;;;;5085765;28;20466;-62
2023/03/25 03:19:02;;;;;;;3.67;2.00;;;10.50;99.90;;;;;;5087152;28;20445;-58
2023/03/25 03:21:37;;;;;;;3.00;2.00;;;10.50;99.90;;;;;;5090038;28;20450;-62
2023/03/25 03:24:12;;;;;;;1.80;1.43;;;10.50;99.90;;;;;;5089559;28;20458;-62
2023/03/25 03:26:45;;;;;;;2.03;1.73;;;10.40;99.90;;;;;;5080838;28;20455;-61
2023/03/25 03:29:17;;;;;;;1.50;1.20;;;10.40;99.90;;;;;;5088292;28;20466;-60
2023/03/25 03:31:47;;;;;;;5.87;1.57;;;10.40;99.90;;;;;;5089349;28;20449;-63
2023/03/25 03:34:23;;;;;;;4.27;2.03;;;10.40;99.90;;;;;;5089866;28;20466;-61
2023/03/25 03:36:53;;;;;;;1.77;1.50;;;10.40;99.90;;;;;;5089549;28;20951;-61
2023/03/25 03:39:25;;;;;;;3.47;1.40;;;10.30;99.90;;;;;;5088581;28;20464;-57
2023/03/25 03:41:57;;;;;;;2.70;2.13;;;10.20;99.90;;;;;;5090042;28;20435;-57
2023/03/25 03:44:30;;;;;;;2.60;1.67;;;10.20;99.90;;;;;;5090398;28;20481;-59
2023/03/25 03:47:01;;;;;;;5.50;1.67;;;10.10;99.90;;;;;;5078262;28;20491;-55
2023/03/25 03:49:32;;;;;;;3.77;1.40;;;10.00;99.90;;;;;;5075404;28;20415;-58
2023/03/25 03:52:03;;;;;;;4.17;1.93;;;10.10;99.90;;;;;;5067364;28;20510;-62
2023/03/25 03:54:38;;;;;;;1.90;1.43;;;10.00;99.90;;;;;;5072572;28;20484;-60
2023/03/25 03:57:11;;;;;;;4.40;1.67;;;10.00;99.90;;;;;;5060541;28;20524;-59
2023/03/25 03:59:47;;;;;;;4.03;2.03;;;10.00;99.90;;;;;;5074035;28;20451;-60
2023/03/25 04:02:23;;;;;;;3.00;1.43;;;10.00;99.90;;;;;;5062820;28;20452;-58
2023/03/25 04:04:50;;;;;;;1.90;1.50;;;10.00;99.90;;;;;;5075967;28;20470;-62
2023/03/25 04:07:19;;;;;;;5.53;1.60;;;10.10;99.90;;;;;;5076252;28;20431;-57
2023/03/25 04:09:55;;;;;;;2.67;1.90;;;10.00;99.90;;;;;;5070747;28;20503;-59
2023/03/25 04:12:25;;;;;;;4.20;1.33;;;10.10;99.90;;;;;;5068542;28;20451;-58
2023/03/25 04:14:55;;;;;;;5.57;1.73;;;10.10;99.90;;;;;;5065323;28;20467;-61
2023/03/25 04:17:22;;;;;;;4.80;1.50;;;10.10;99.90;;;;;;5075783;28;20974;-58
2023/03/25 04:19:52;;;;;;;2.70;1.53;;;10.10;99.90;;;;;;5074791;28;20475;-60
2023/03/25 04:22:20;;;;;;;6.37;1.43;;;10.10;99.90;;;;;;5074019;28;20463;-61
2023/03/25 04:24:50;;;;;;;3.63;1.30;;;10.10;99.90;;;;;;5068124;28;20460;-60
2023/03/25 04:27:18;;;;;;;2.67;1.20;;;10.00;99.90;;;;;;5072815;28;20479;-61
2023/03/25 04:29:46;;;;;;;7.33;1.50;;;10.10;99.90;;;;;;5073180;28;20505;-60
2023/03/25 04:32:14;;;;;;;2.03;1.67;;;10.20;99.90;;;;;;5073635;28;20487;-59
2023/03/25 04:34:40;;;;;;;4.33;1.87;;;10.20;99.90;;;;;;5073553;28;20463;-62
2023/03/25 04:37:07;;;;;;;2.60;1.47;;;10.20;99.90;;;;;;5072039;28;20507;-61
2023/03/25 04:39:34;;;;;;;2.80;1.43;;;10.10;99.90;;;;;;5065095;28;20459;-61
2023/03/25 04:42:03;;;;;;;4.10;1.33;;;10.20;99.90;;;;;;5073816;28;20610;-61
2023/03/25 04:44:32;;;;;;;2.10;1.50;;;10.10;99.90;;;;;;5062493;28;20474;-62
2023/03/25 04:47:00;;;;;;;3.80;1.40;;;10.10;99.90;;;;;;5074442;28;20455;-56
2023/03/25 04:49:27;;;;;;;2.60;1.30;;;10.30;99.90;;;;;;5072309;28;20463;-62
2023/03/25 04:51:55;;;;;;;1.90;1.20;;;10.30;99.90;;;;;;5073475;28;20482;-61
2023/03/25 04:54:23;;;;;;;1.40;1.20;;;10.20;99.90;;;;;;5073234;28;20452;-60
2023/03/25 04:56:51;;;;;;;1.33;1.00;;;10.20;99.90;;;;;;5060948;28;20490;-60
2023/03/25 04:59:21;;;;;;;1.97;1.10;;;10.20;99.90;;;;;;5071804;28;20554;-60
2023/03/25 05:01:49;;;;;;;1.63;1.00;;;10.10;99.90;;;;;;5065759;28;20911;-62
2023/03/25 05:04:17;;;;;;;1.20;0.93;;;10.20;99.90;;;;;;5073622;28;20463;-61
2023/03/25 05:06:46;;;;;;;7.03;1.40;;;10.10;99.90;;;;;;5074562;28;20440;-65
2023/03/25 05:09:15;;;;;;;3.87;1.10;;;10.10;99.90;;;;;;5073407;28;20466;-60
2023/03/25 05:11:43;;;;;;;3.20;1.30;;;10.00;99.90;;;;;;5072631;28;20467;-58
2023/03/25 05:14:11;;;;;;;3.47;1.73;;;10.10;99.90;;;;;;5073826;28;20479;-59
2023/03/25 05:16:40;;;;;;;3.40;1.67;;;10.00;99.90;;;;;;5072976;28;20496;-60
2023/03/25 05:19:07;;;;;;;1.97;1.00;;;9.90;99.90;;;;;;5061600;28;20538;-59
2023/03/25 05:21:36;;;;;;;2.70;1.17;;;9.90;99.90;;;;;;5075013;28;20423;-59
2023/03/25 05:24:03;;;;;;;1.60;1.10;;;9.90;99.90;;;;;;5073152;28;20466;-61
2023/03/25 05:26:33;;;;;;;5.53;1.00;;;9.80;99.90;;;;;;5072254;28;20483;-61
2023/03/25 05:29:00;;;;;;;2.17;1.43;;;9.80;99.90;;;;;;5067217;28;20552;-56
2023/03/25 05:31:28;;;;;;;2.47;1.43;;;9.80;99.90;;;;;;5074274;28;20527;-62
2023/03/25 05:33:56;;;;;;;4.60;1.43;;;9.80;99.90;;;;;;5068783;28;20468;-61
2023/03/25 05:36:24;;;;;;;2.63;1.63;;;9.80;99.90;;;;;;5055537;28;20491;-57
2023/03/25 05:38:53;;;;;;;3.40;1.97;;;9.80;99.90;;;;;;5070412;28;20435;-60
2023/03/25 05:41:31;;;;;;;6.27;1.20;;;9.90;99.90;;;;;;5073872;28;20463;-62
2023/03/25 05:44:01;;;;;;;1.50;1.10;;;9.80;99.90;;;;;;5073694;28;20451;-61
2023/03/25 05:46:29;;;;;;;2.40;1.00;;;9.80;99.90;;;;;;5072571;28;20474;-60
2023/03/25 05:48:59;;;;;;;1.67;1.30;;;9.90;99.90;;;;;;5069824;28;20493;-59
2023/03/25 05:51:27;;;;;;;1.83;1.57;;;9.90;99.90;;;;;;5073738;28;20443;-60
2023/03/25 05:53:54;;;;;;;2.83;1.77;;;9.90;99.90;;;;;;5075402;28;20463;-61
2023/03/25 05:56:23;;;;;;;2.30;1.50;;;9.90;99.90;;;;;;5073468;28;20510;-61
2023/03/25 05:58:52;;;;;;;4.00;1.00;;;10.10;99.90;;;;;;5073032;28;20473;-59
2023/03/25 06:01:21;;;;;;;2.30;1.53;;;10.20;99.90;;;;;;5069195;28;20474;-61
2023/03/25 06:03:50;;;;;;;3.20;1.07;;;10.30;99.90;;;;;;5074389;28;20428;-60
2023/03/25 06:06:18;;;;;;;1.10;0.90;;;10.30;99.90;;;;;;5073201;28;20515;-61
2023/03/25 06:08:46;;;;;;;4.60;1.10;;;10.30;99.90;;;;;;5072838;28;20495;-60
2023/03/25 06:11:13;;;;;;;4.17;1.40;;;10.40;99.90;;;;;;5069036;28;20469;-59
2023/03/25 06:13:48;;;;;;;2.77;1.53;;;10.30;99.90;;;;;;5071779;28;20443;-61
2023/03/25 06:16:18;;;;;;;1.30;1.13;;;10.40;99.90;;;;;;5060266;28;20773;-61
2023/03/25 06:18:49;;;;;;;1.23;0.87;;;10.40;99.90;;;;;;5072239;28;20451;-59
2023/03/25 06:21:18;;;;;;;1.37;0.90;;;10.40;99.90;;;;;;5073115;28;20435;-56
2023/03/25 06:23:46;;;;;;;1.00;0.70;;;10.40;99.90;;;;;;5068634;28;20466;-61
2023/03/25 06:26:14;;;;;;;3.80;0.80;;;10.30;99.90;;;;;;5065108;28;20512;-60
2023/03/25 06:28:41;;;;;;;0.93;0.77;;;10.30;99.90;;;;;;5064782;28;20455;-62
2023/03/25 06:31:12;;;;;;;2.30;1.00;;;10.40;99.90;;;;;;5070740;28;20493;-59
2023/03/25 06:33:40;;;;;;;1.37;1.00;;;10.50;99.90;;;;;;5072456;28;20479;-61
2023/03/25 06:36:08;;;;;;;3.57;1.00;;;10.50;99.90;;;;;;5072986;28;20473;-60
2023/03/25 06:38:36;;;;;;;1.53;1.00;;;10.60;99.90;;;;;;5073914;28;20447;-60
2023/03/25 06:41:06;;;;;;;2.30;0.77;;;10.70;99.90;;;;;;5072045;28;20487;-61
2023/03/25 06:43:33;;;;;;;1.40;1.10;;;10.70;99.90;;;;;;5059739;28;20468;-62
2023/03/25 06:46:00;;;;;;;0.93;0.70;;;10.70;99.90;;;;;;5068799;28;20446;-62
2023/03/25 06:48:27;;;;;;;1.40;0.90;;;10.80;99.90;;;;;;5073135;28;20476;-61
2023/03/25 06:50:54;;;;;;;2.23;0.87;;;10.90;99.90;;;;;;5071078;28;20920;-60
2023/03/25 06:53:21;;;;;;;1.10;0.80;;;10.90;99.90;;;;;;5072367;28;20485;-61
2023/03/25 06:55:49;;;;;;;3.70;1.10;;;10.90;99.90;;;;;;5072588;28;20487;-58
2023/03/25 06:58:16;;;;;;;1.30;0.90;;;10.90;99.90;;;;;;5072950;28;20510;-62
2023/03/25 07:00:44;;;;;;;1.00;0.70;;;10.90;99.90;;;;;;5071995;28;20439;-61
2023/03/25 07:03:11;;;;;;;2.20;0.93;;;10.90;99.90;;;;;;5072886;28;20480;-59
2023/03/25 07:05:40;;;;;;;1.43;0.77;;;10.90;99.90;;;;;;5072636;28;20447;-60
2023/03/25 07:08:07;;;;;;;6.93;1.50;;;11.00;99.90;;;;;;5072664;28;20479;-61
2023/03/25 07:10:34;;;;;;;1.73;1.43;;;10.90;99.90;;;;;;5070940;28;20463;-61
2023/03/25 07:13:02;;;;;;;2.03;0.90;;;10.90;99.90;;;;;;5073073;28;20478;-60
2023/03/25 07:15:29;;;;;;;1.20;1.00;;;10.90;99.90;;;;;;5072650;28;20486;-60
2023/03/25 07:17:56;;;;;;;1.40;0.97;;;10.80;99.90;;;;;;5072479;28;20471;-61
2023/03/25 07:20:23;;;;;;;2.07;1.00;;;10.90;99.90;;;;;;5071495;28;20494;-61
2023/03/25 07:22:50;;;;;;;6.50;0.97;;;10.90;99.90;;;;;;5074659;28;20479;-61
2023/03/25 07:25:17;;;;;;;3.60;1.07;;;10.90;99.90;;;;;;5076326;28;20896;-61
2023/03/25 07:27:43;;;;;;;1.70;1.20;;;11.00;99.90;;;;;;5076656;28;20482;-61
2023/03/25 07:30:12;;;;;;;1.73;1.00;;;11.00;99.90;;;;;;5074771;28;20468;-61
2023/03/25 07:32:39;;;;;;;1.03;0.80;;;11.10;99.90;;;;;;5073454;28;20511;-61
2023/03/25 07:35:08;;;;;;;2.03;0.80;;;11.10;99.90;;;;;;5059372;28;20451;-58
2023/03/25 07:37:35;;;;;;;2.80;1.27;;;11.10;99.90;;;;;;5068683;28;20467;-60
2023/03/25 07:40:01;;;;;;;6.50;1.27;;;11.20;99.90;;;;;;5072521;28;20489;-62
2023/03/25 07:42:28;;;;;;;1.60;1.00;;;11.20;99.90;;;;;;5074051;28;20469;-60
2023/03/25 07:44:55;;;;;;;1.17;0.73;;;11.30;99.90;;;;;;5074430;28;20538;-58
2023/03/25 07:47:23;;;;;;;2.17;1.00;;;11.50;99.90;;;;;;5076453;28;20462;-61
2023/03/25 07:49:50;;;;;;;3.63;1.13;;;11.60;99.90;;;;;;5072840;28;20435;-61
2023/03/25 07:52:17;;;;;;;1.30;1.00;;;11.70;99.90;;;;;;5074241;28;20447;-59
2023/03/25 07:54:44;;;;;;;2.00;0.90;;;11.90;99.90;;;;;;5062947;28;20463;-61
2023/03/25 07:57:12;;;;;;;3.43;1.57;;;12.10;99.90;;;;;;5061805;28;20562;-58
2023/03/25 07:59:38;;;;;;;1.30;1.00;;;12.30;99.90;;;;;;5063564;28;20427;-57
2023/03/25 08:02:05;;;;;;;7.03;1.60;;;12.40;99.90;;;;;;5066484;28;20566;-60
2023/03/25 08:04:34;;;;;;;5.00;1.40;;;12.40;99.90;;;;;;5044368;28;20550;-60
2023/03/25 08:07:01;;;;;;;0.90;0.70;;;12.40;99.90;;;;;;5061673;28;20474;-59
2023/03/25 08:09:28;;;;;;;2.83;0.93;;;12.40;99.90;;;;;;5059705;28;20450;-58
2023/03/25 08:11:55;;;;;;;5.63;2.40;;;12.60;99.90;;;;;;5062446;28;20443;-61
2023/03/25 08:14:22;;;;;;;3.30;1.30;;;12.70;99.90;;;;;;5064135;28;20542;-61
2023/03/25 08:16:49;;;;;;;11.03;5.57;;;12.80;99.90;;;;;;5065032;28;20962;-60
2023/03/25 08:19:16;;;;;;;4.47;2.40;;;13.00;99.90;;;;;;5057614;28;20540;-55
2023/03/25 08:21:44;;;;;;;1.83;1.53;;;13.20;99.90;;;;;;5059124;28;20447;-60
2023/03/25 08:24:12;;;;;;;2.83;1.47;;;13.40;99.90;;;;;;5059904;28;20518;-57
2023/03/25 08:26:42;;;;;;;3.10;1.50;;;13.40;99.90;;;;;;5064050;28;20435;-61
2023/03/25 08:29:10;;;;;;;2.50;1.43;;;13.40;99.90;;;;;;5065802;28;20591;-62
2023/03/25 08:31:37;;;;;;;1.40;1.27;;;13.40;99.90;;;;;;5060581;28;20480;-61
2023/03/25 08:34:06;;;;;;;3.80;1.10;;;14.00;99.90;;;;;;5070435;28;20506;-60
2023/03/25 08:36:33;;;;;;;1.47;1.00;;;14.80;99.90;;;;;;5054592;28;20480;-64
2023/03/25 08:39:06;;;;;;;0.90;0.70;;;15.30;99.90;;;;;;5067934;28;20459;-60
2023/03/25 08:41:33;;;;;;;3.57;1.10;;;14.90;99.90;;;;;;5060685;28;20448;-63
2023/03/25 08:44:00;;;;;;;1.30;0.93;;;14.60;99.90;;;;;;5063702;28;20479;-62
2023/03/25 08:46:27;;;;;;;1.50;1.00;;;14.40;99.90;;;;;;5063723;28;20862;-64
2023/03/25 08:48:54;;;;;;;5.70;2.60;;;14.00;99.90;;;;;;5071473;28;20511;-54
2023/03/25 08:51:21;;;;;;;2.30;1.10;;;13.60;99.90;;;;;;5061432;28;20995;-63
2023/03/25 08:53:48;;;;;;;2.60;1.40;;;13.40;99.90;;;;;;5059486;28;20546;-62
2023/03/25 08:56:17;;;;;;;2.03;1.20;;;13.30;99.90;;;;;;5059278;28;20439;-64
2023/03/25 08:58:45;;;;;;;1.90;1.20;;;13.30;99.90;;;;;;5061376;28;20558;-57
2023/03/25 09:01:12;;;;;;;3.67;1.13;;;13.30;99.90;;;;;;5066597;28;20718;-63
2023/03/25 09:03:39;;;;;;;1.63;1.10;;;13.10;99.90;;;;;;5063601;28;20499;-63
2023/03/25 09:06:07;;;;;;;1.40;1.13;;;12.90;99.90;;;;;;5074802;28;20534;-56
2023/03/25 09:08:35;;;;;;;2.07;1.03;;;12.70;99.90;;;;;;5071699;28;20448;-61
2023/03/25 09:11:03;;;;;;;7.13;1.53;;;12.60;99.90;;;;;;5053389;28;20462;-63
2023/03/25 09:13:31;;;;;;;1.50;1.07;;;12.50;99.90;;;;;;5070241;28;20479;-62
2023/03/25 09:15:58;;;;;;;2.30;1.20;;;12.50;99.90;;;;;;5064263;28;20487;-62
2023/03/25 09:18:25;;;;;;;1.23;0.70;;;12.50;99.90;;;;;;5070827;28;20507;-60
2023/03/25 09:20:57;;;;;;;5.87;3.10;;;12.40;99.90;;;;;;5069803;28;20455;-60
2023/03/25 09:23:24;;;;;;;1.30;1.00;;;12.30;99.90;;;;;;5059543;28;20516;-63
2023/03/25 09:25:51;;;;;;;1.60;1.20;;;12.40;99.90;;;;;;5057709;28;20468;-63
2023/03/25 09:28:18;;;;;;;1.70;1.20;;;12.50;99.90;;;;;;5052622;28;20447;-60
2023/03/25 09:30:46;;;;;;;2.80;1.57;;;12.60;99.90;;;;;;5057682;28;20558;-61
2023/03/25 09:33:14;;;;;;;1.47;1.00;;;12.60;99.90;;;;;;5060890;28;20487;-63
2023/03/25 09:35:41;;;;;;;5.60;1.67;;;12.60;99.90;;;;;;5051747;28;20471;-62
2023/03/25 09:38:08;;;;;;;1.73;0.93;;;12.40;99.90;;;;;;5058041;28;21002;-60
2023/03/25 09:40:35;;;;;;;1.10;0.90;;;12.30;99.90;;;;;;5052271;28;20539;-60
2023/03/25 09:43:17;;;;;;;10.40;1.10;;;12.20;99.90;;;;;;5072034;28;20479;-59
2023/03/25 09:45:48;;;;;;;3.20;1.60;;;12.10;99.90;;;;;;5073812;28;20491;-60
2023/03/25 09:48:29;;;;;;;1.50;0.90;;;12.00;99.90;;;;;;5075247;28;20490;-61
2023/03/25 09:50:59;;;;;;;2.80;1.00;;;12.10;99.90;;;;;;5069383;28;20482;-60
2023/03/25 09:53:34;;;;;;;1.53;1.23;;;12.20;99.90;;;;;;5067812;28;20509;-63
2023/03/25 09:56:02;;;;;;;1.20;0.90;;;12.30;99.90;;;;;;5055201;28;20534;-62
2023/03/25 09:58:40;;;;;;;1.40;1.00;;;12.60;99.90;;;;;;5055162;28;20479;-61
2023/03/25 10:01:20;;;;;;;1.00;0.87;;;13.00;99.90;;;;;;5067877;28;20467;-61
2023/03/25 10:03:55;;;;;;;4.60;2.27;;;14.10;99.90;;;;;;5047544;28;20558;-61
2023/03/25 10:06:26;;;;;;;2.50;1.80;;;15.00;99.90;;;;;;5051775;28;20490;-60
2023/03/25 10:09:09;;;;;;;2.90;2.10;;;15.20;99.90;;;;;;5052311;28;20472;-61
2023/03/25 10:11:43;;;;;;;4.20;1.17;;;15.10;99.90;;;;;;5052035;28;20443;-61
2023/03/25 10:14:14;;;;;;;1.00;0.80;;;14.80;99.90;;;;;;5064226;28;20452;-60
2023/03/25 10:16:57;;;;;;;2.20;1.67;;;14.30;99.90;;;;;;5073142;28;20443;-63
2023/03/25 10:19:42;;;;;;;1.00;0.90;;;13.90;99.90;;;;;;5056130;28;20519;-63
2023/03/25 10:22:16;;;;;;;1.23;1.10;;;13.50;99.90;;;;;;5051430;28;20469;-63
2023/03/25 10:24:49;;;;;;;4.07;0.90;;;13.30;99.90;;;;;;5060076;28;20506;-62
2023/03/25 10:27:22;;;;;;;1.10;0.80;;;13.20;99.90;;;;;;5053334;28;20825;-62
2023/03/25 10:29:53;;;;;;;1.10;0.80;;;13.70;99.90;;;;;;5062482;28;20419;-60
2023/03/25 10:32:30;;;;;;;1.10;0.83;;;14.70;99.90;;;;;;5068965;28;20439;-63
2023/03/25 10:34:58;;;;;;;2.50;0.90;;;15.70;99.90;;;;;;5044811;28;20483;-62
2023/03/25 10:37:29;;;;;;;1.50;1.00;;;15.70;99.90;;;;;;5053961;28;20487;-59
2023/03/25 10:39:59;;;;;;;2.53;0.97;;;15.70;99.90;;;;;;5056068;28;20507;-62
2023/03/25 10:42:31;;;;;;;0.90;0.80;;;15.60;99.90;;;;;;5063908;28;20546;-61
2023/03/25 10:44:58;;;;;;;1.20;0.87;;;15.20;99.90;;;;;;5045652;28;20450;-60
2023/03/25 10:47:32;;;;;;;2.50;1.20;;;14.80;99.90;;;;;;5050086;28;20534;-61
2023/03/25 10:49:59;;;;;;;1.23;0.80;;;15.10;99.90;;;;;;5047227;28;20431;-63
2023/03/25 10:52:27;;;;;;;1.40;1.10;;;15.20;99.90;;;;;;5049870;28;20858;-61
2023/03/25 10:54:55;;;;;;;1.10;0.90;;;15.10;99.90;;;;;;5053269;28;20522;-62
2023/03/25 10:57:26;;;;;;;1.50;0.90;;;15.00;99.90;;;;;;5047132;28;20476;-61
2023/03/25 11:00:00;;;;;;;2.70;1.20;;;15.00;99.90;;;;;;5074402;28;20447;-58
2023/03/25 11:02:31;;;;;;;1.10;0.90;;;15.40;99.90;;;;;;5075643;28;20474;-62
2023/03/25 11:05:01;;;;;;;1.20;0.90;;;15.50;99.90;;;;;;5052248;28;20462;-58
2023/03/25 11:07:32;;;;;;;3.00;0.97;;;15.50;99.90;;;;;;5053165;28;20489;-62
2023/03/25 11:10:10;;;;;;;1.00;0.80;;;15.30;99.90;;;;;;5065378;28;20451;-59
2023/03/25 11:12:38;;;;;;;1.20;1.00;;;15.00;99.90;;;;;;5043121;28;20513;-60
2023/03/25 11:15:07;;;;;;;1.50;1.00;;;14.60;99.90;;;;;;5052735;28;21077;-61
2023/03/25 11:17:35;;;;;;;1.70;1.10;;;14.20;99.90;;;;;;5055002;28;20474;-60
2023/03/25 11:20:09;;;;;;;1.23;0.83;;;13.90;99.90;;;;;;5057405;28;20497;-61
2023/03/25 11:22:38;;;;;;;1.10;0.93;;;13.90;99.90;;;;;;5047399;28;20476;-62
2023/03/25 11:25:12;;;;;;;1.30;1.10;;;14.00;99.90;;;;;;5044650;28;20979;-62
2023/03/25 11:27:45;;;;;;;1.40;1.10;;;14.30;99.90;;;;;;5074662;28;20439;-59
2023/03/25 11:30:17;;;;;;;2.07;1.40;;;14.40;99.90;;;;;;5062878;28;20491;-61
2023/03/25 11:32:56;;;;;;;1.83;1.17;;;14.20;99.90;;;;;;5052786;28;20447;-62
2023/03/25 11:35:26;;;;;;;3.50;1.10;;;14.00;99.90;;;;;;5055379;28;20467;-59
2023/03/25 11:37:57;;;;;;;1.80;1.30;;;14.10;99.90;;;;;;5064059;28;20498;-57
2023/03/25 11:40:24;;;;;;;2.00;1.00;;;14.10;99.90;;;;;;5070783;28;20953;-62
2023/03/25 11:42:54;;;;;;;3.20;1.50;;;14.00;99.90;;;;;;5073611;28;20431;-59
2023/03/25 11:45:23;;;;;;;2.13;1.00;;;13.90;99.90;;;;;;5057027;28;20896;-60
2023/03/25 11:47:52;;;;;;;1.93;1.57;;;13.80;99.90;;;;;;5071031;28;20467;-61
2023/03/25 11:50:22;;;;;;;1.87;0.90;;;13.70;99.90;;;;;;5056862;28;20475;-61
2023/03/25 11:52:52;;;;;;;1.20;0.87;;;13.60;99.90;;;;;;5071850;28;20442;-62
2023/03/25 11:55:23;;;;;;;3.50;1.70;;;13.10;99.90;;;;;;5066795;28;20490;-61
2023/03/25 11:57:52;;;;;;;2.10;1.20;;;12.90;99.90;;;;;;5049551;28;20541;-60
2023/03/25 12:00:36;;;;;;;2.00;1.37;;;13.10;99.90;;;;;;5047660;28;20536;-62
2023/03/25 12:03:16;;;;;;;3.00;0.90;;;13.50;99.90;;;;;;5052004;28;20470;-60
2023/03/25 12:05:56;;;;;;;2.50;1.10;;;14.00;99.90;;;;;;5069646;28;20479;-61
2023/03/25 12:08:23;;;;;;;2.23;1.20;;;14.10;99.90;;;;;;5054933;28;20818;-62
2023/03/25 12:10:54;;;;;;;1.00;0.90;;;14.30;99.90;;;;;;5066191;28;20519;-59
2023/03/25 12:13:33;;;;;;;1.33;1.00;;;14.40;99.90;;;;;;5049093;28;20554;-63
2023/03/25 12:16:15;;;;;;;5.47;1.30;;;14.50;99.90;;;;;;5049730;28;20573;-61
2023/03/25 12:18:58;;;;;;;1.17;0.97;;;14.60;99.90;;;;;;5060953;28;20513;-61
2023/03/25 12:21:53;;;;;;;1.10;1.00;;;14.70;99.90;;;;;;5040209;28;20554;-57
2023/03/25 12:24:35;;;;;;;1.00;0.80;;;14.70;99.90;;;;;;5060986;28;20428;-61
2023/03/25 12:27:17;;;;;;;3.87;1.17;;;14.70;99.90;;;;;;5064148;28;20439;-59
2023/03/25 12:29:52;;;;;;;1.53;1.20;;;14.60;99.90;;;;;;5054843;28;20534;-62
2023/03/25 12:32:31;;;;;;;1.10;0.90;;;14.50;99.90;;;;;;5058326;28;20522;-63
2023/03/25 12:35:14;;;;;;;0.97;0.80;;;14.40;99.90;;;;;;5045015;28;20455;-60
2023/03/25 12:38:07;;;;;;;1.27;0.80;;;14.10;99.90;;;;;;5046265;28;20467;-63
2023/03/25 12:40:50;;;;;;;1.33;0.87;;;14.10;99.90;;;;;;5047124;28;20490;-60
2023/03/25 12:43:21;;;;;;;1.20;0.80;;;14.00;99.90;;;;;;5047605;28;20443;-63
2023/03/25 12:46:06;;;;;;;1.87;1.00;;;14.00;99.90;;;;;;5046773;28;20561;-61
2023/03/25 12:48:56;;;;;;;4.80;1.00;;;14.10;99.90;;;;;;5056322;28;20460;-60
2023/03/25 12:51:34;;;;;;;1.60;1.00;;;14.20;99.90;;;;;;5070657;28;20456;-58
2023/03/25 12:54:17;;;;;;;1.77;1.10;;;14.40;99.90;;;;;;5072411;28;20443;-61
2023/03/25 12:56:50;;;;;;;1.83;0.90;;;14.50;99.90;;;;;;5054300;28;20459;-61
2023/03/25 12:59:37;;;;;;;3.43;0.97;;;14.50;99.90;;;;;;5053175;28;20485;-61
2023/03/25 13:02:15;;;;;;;2.33;0.80;;;14.40;99.90;;;;;;5048278;28;20467;-62
2023/03/25 13:05:04;;;;;;;3.43;1.17;;;14.50;99.90;;;;;;5054234;28;21099;-60
2023/03/25 13:07:38;;;;;;;1.23;0.90;;;14.60;99.90;;;;;;5066861;28;20474;-61
2023/03/25 13:10:14;;;;;;;1.43;0.90;;;14.90;99.90;;;;;;5055627;28;20530;-59